| Data: 10/05/2026, Hora: 22:35 | |||||
| Act. | Màx. | Hora màxima | Mín. | Hora mínima | |
| Temperatura | 15,0 °C | 23,3 °C | 17:52 | 10,0 °C | 07:07 |
| Humitat | 71 % | 100 % | 07:57 | 42 % | 18:52 |
| Pressió | 1.013,3 hPa | 1.014,9 hPa | 12:02 | 1.012,2 hPa | 18:42 |
| Vent | 4 km/h | 26 km/h | 16:32 | ![]() |
|
| Direcció | SE | ||||
| Precipitació | 0,0 mm | ||||
| Horari | Temperatura | Humitat | Pressió | Vent | Pluja | ||||||||
| Act. | Màx. | Mín. | Act. | Màx. | Mín. | Act. | Màx. | Mín. | Act. | Dir. | Màx. | ||
| 00:01 - 01:00 | 12,2 | 12,2 | 12,2 | 100 | 100 | 100 | 1014,3 | 1014,3 | 1014,3 | 1 | NE | 10 | |
| 01:01 - 02:00 | 11,5 | 12,2 | 11,1 | 100 | 100 | 100 | 1014,1 | 1014,3 | 1013,9 | 1 | NE | 11 | |
| 02:01 - 03:00 | 10,8 | 11,1 | 10,6 | 100 | 100 | 100 | 1013,4 | 1013,9 | 1012,9 | 4 | ESE | 14 | |
| 03:01 - 04:00 | 10,2 | 10,6 | 10,0 | 100 | 100 | 100 | 1012,9 | 1012,9 | 1012,9 | 3 | SE | 16 | |
| 04:01 - 05:00 | 10,5 | 10,6 | 10,0 | 100 | 100 | 100 | 1012,9 | 1012,9 | 1012,9 | 4 | SE | 16 | |
| 05:01 - 06:00 | 10,5 | 10,6 | 10,0 | 100 | 100 | 100 | 1012,7 | 1012,9 | 1012,6 | 2 | ESE | 11 | |
| 06:01 - 07:00 | 10,0 | 10,6 | 10,0 | 100 | 100 | 100 | 1012,5 | 1012,6 | 1012,2 | 2 | SE | 16 | |
| 07:01 - 08:00 | 11,4 | 13,3 | 10,0 | 100 | 100 | 100 | 1012,8 | 1013,3 | 1012,2 | 0 | NE | 10 | |
| 08:01 - 09:00 | 15,9 | 17,8 | 13,3 | 80 | 99 | 70 | 1013,7 | 1013,9 | 1013,3 | 0 | NNE | 5 | |
| 09:01 - 10:00 | 17,7 | 18,3 | 17,2 | 69 | 72 | 68 | 1014,2 | 1014,6 | 1013,9 | 1 | S | 13 | |
| 10:01 - 11:00 | 18,1 | 18,9 | 17,5 | 68 | 71 | 65 | 1014,6 | 1014,6 | 1014,6 | 4 | SSW | 21 | |
| 11:01 - 12:00 | 19,1 | 20,0 | 18,3 | 63 | 67 | 60 | 1014,7 | 1014,9 | 1014,6 | 5 | SSW | 19 | |
| 12:01 - 13:00 | 20,6 | 21,1 | 20,0 | 61 | 66 | 58 | 1014,6 | 1014,9 | 1014,6 | 4 | SSW | 21 | |
| 13:01 - 14:00 | 20,6 | 21,7 | 19,4 | 58 | 61 | 49 | 1014,4 | 1014,6 | 1014,3 | 2 | SSW | 16 | |
| 14:01 - 15:00 | 21,4 | 22,2 | 20,9 | 57 | 61 | 51 | 1014,0 | 1014,3 | 1013,9 | 2 | SSW | 18 | |
| 15:01 - 16:00 | 21,8 | 22,8 | 20,6 | 54 | 60 | 50 | 1013,6 | 1013,9 | 1013,3 | 3 | SSW | 24 | |
| 16:01 - 17:00 | 22,8 | 22,8 | 22,2 | 48 | 51 | 43 | 1013,1 | 1013,3 | 1012,9 | 4 | SSW | 26 | |
| 17:01 - 18:00 | 22,8 | 23,3 | 22,2 | 45 | 48 | 43 | 1012,7 | 1012,9 | 1012,6 | 5 | SSW | 21 | |
| 18:01 - 19:00 | 22,5 | 22,8 | 21,7 | 43 | 45 | 42 | 1012,5 | 1012,6 | 1012,2 | 4 | SW | 21 | |
| 19:01 - 20:00 | 19,7 | 21,7 | 18,3 | 47 | 49 | 43 | 1012,6 | 1012,6 | 1012,6 | 4 | SSW | 21 | |
| 20:01 - 21:00 | 17,1 | 18,3 | 16,1 | 55 | 63 | 44 | 1012,8 | 1012,9 | 1012,6 | 1 | SSE | 18 | |
| 21:01 - 22:00 | 16,0 | 16,7 | 15,6 | 65 | 70 | 62 | 1012,9 | 1012,9 | 1012,9 | 2 | ESE | 18 | |
| 22:01 - 22:35 | 15,5 | 15,6 | 15,0 | 71 | 72 | 70 | 1013,2 | 1013,3 | 1012,9 | 2 | SSE | 18 | |
| 16,5 | 23,3 | 10,0 | 73 | 100 | 42 | 1013,5 | 1014,9 | 1012,2 | 3 | SSE | 26 | 0,0 | |